createdAt,value
2022-09-28T00:01:28.294Z,10.00
2022-09-28T00:03:59.711Z,9.67
2022-09-28T00:06:28.162Z,10.57
2022-09-28T00:08:55.790Z,10.67
2022-09-28T00:11:26.106Z,9.40
2022-09-28T00:13:56.667Z,8.93
2022-09-28T00:16:28.797Z,10.13
2022-09-28T00:18:56.452Z,10.53
2022-09-28T00:21:24.971Z,11.30
2022-09-28T00:24:12.181Z,10.53
2022-09-28T00:26:48.899Z,9.70
2022-09-28T00:29:18.317Z,10.47
2022-09-28T00:31:46.043Z,10.33
2022-09-28T00:34:13.928Z,9.97
2022-09-28T00:36:43.941Z,10.33
2022-09-28T00:39:11.858Z,10.40
2022-09-28T00:41:39.067Z,11.23
2022-09-28T00:44:24.789Z,10.63
2022-09-28T00:47:11.124Z,11.33
2022-09-28T00:49:38.398Z,10.80
2022-09-28T00:52:06.848Z,10.77
2022-09-28T00:54:34.734Z,10.27
2022-09-28T00:57:03.134Z,10.70
2022-09-28T00:59:31.358Z,10.17
2022-09-28T01:01:58.886Z,10.87
2022-09-28T01:04:29.876Z,10.67
2022-09-28T01:06:58.056Z,11.63
2022-09-28T01:09:26.707Z,11.53
2022-09-28T01:11:55.307Z,12.17
2022-09-28T01:14:25.750Z,12.37
2022-09-28T01:16:55.928Z,12.37
2022-09-28T01:19:43.165Z,13.33
2022-09-28T01:22:29.341Z,13.50
2022-09-28T01:25:06.298Z,14.90
2022-09-28T01:27:36.159Z,14.07
2022-09-28T01:30:07.527Z,14.50
2022-09-28T01:32:43.886Z,14.07
2022-09-28T01:35:15.369Z,13.93
2022-09-28T01:37:42.667Z,13.80
2022-09-28T01:40:10.637Z,15.10
2022-09-28T01:42:39.654Z,14.47
2022-09-28T01:45:10.171Z,14.17
2022-09-28T01:47:39.091Z,14.83
2022-09-28T01:50:11.522Z,14.70
2022-09-28T01:52:42.810Z,14.33
2022-09-28T01:55:26.902Z,14.77
2022-09-28T01:57:57.437Z,14.97
2022-09-28T02:00:25.168Z,15.70
2022-09-28T02:03:02.704Z,14.50
2022-09-28T02:05:40.459Z,15.83
2022-09-28T02:08:14.944Z,14.97
2022-09-28T02:10:48.373Z,16.40
2022-09-28T02:13:25.398Z,14.97
2022-09-28T02:15:55.274Z,14.27
2022-09-28T02:18:22.581Z,14.17
2022-09-28T02:20:57.502Z,15.37
2022-09-28T02:23:27.378Z,13.77
2022-09-28T02:25:56.840Z,16.37
2022-09-28T02:28:23.974Z,13.83
2022-09-28T02:30:51.491Z,14.47
2022-09-28T02:33:32.076Z,14.77
2022-09-28T02:35:59.887Z,13.90
2022-09-28T02:38:27.435Z,12.87
2022-09-28T02:41:00.322Z,13.47
2022-09-28T02:43:31.333Z,13.27
2022-09-28T02:46:02.113Z,12.70
2022-09-28T02:48:43.676Z,13.10
2022-09-28T02:51:14.040Z,13.47
2022-09-28T02:53:59.734Z,12.97
2022-09-28T02:56:26.958Z,13.37
2022-09-28T02:59:14.358Z,13.33
2022-09-28T03:02:02.328Z,12.43
2022-09-28T03:04:34.926Z,12.67
2022-09-28T03:07:07.433Z,12.70
2022-09-28T03:09:50.044Z,13.10
2022-09-28T03:12:19.157Z,13.13
2022-09-28T03:14:46.664Z,11.97
2022-09-28T03:17:13.781Z,12.03
2022-09-28T03:19:40.934Z,12.90
2022-09-28T03:22:08.185Z,12.53
2022-09-28T03:24:35.391Z,12.20
2022-09-28T03:27:02.544Z,12.40
2022-09-28T03:29:31.570Z,12.57
2022-09-28T03:31:58.844Z,12.80
2022-09-28T03:34:26.066Z,12.10
2022-09-28T03:36:53.232Z,11.67
2022-09-28T03:39:20.433Z,11.53
2022-09-28T03:41:47.573Z,12.87
2022-09-28T03:44:14.738Z,11.50
2022-09-28T03:46:43.057Z,12.33
2022-09-28T03:49:10.650Z,12.47
2022-09-28T03:51:38.042Z,12.43
2022-09-28T03:54:05.680Z,12.30
2022-09-28T03:56:33.068Z,12.77
2022-09-28T03:59:00.203Z,13.57
2022-09-28T04:01:27.422Z,12.07
2022-09-28T04:03:55.960Z,13.87
2022-09-28T04:06:23.606Z,12.80
2022-09-28T04:08:50.856Z,12.03
2022-09-28T04:11:18.329Z,13.80
2022-09-28T04:13:48.447Z,13.00
2022-09-28T04:16:16.257Z,12.57
2022-09-28T04:18:44.081Z,13.00
2022-09-28T04:21:12.328Z,12.57
2022-09-28T04:23:40.246Z,14.30
2022-09-28T04:26:08.339Z,14.63
2022-09-28T04:28:54.218Z,14.30
2022-09-28T04:31:22.785Z,14.07
2022-09-28T04:33:50.408Z,14.33
2022-09-28T04:36:19.739Z,13.30
2022-09-28T04:38:53.170Z,13.67
2022-09-28T04:41:22.482Z,12.93
2022-09-28T04:43:50.349Z,14.53
2022-09-28T04:46:17.794Z,12.73
2022-09-28T04:48:45.355Z,14.90
2022-09-28T04:51:12.653Z,14.43
2022-09-28T04:53:39.876Z,15.17
2022-09-28T04:56:08.988Z,14.27
2022-09-28T04:58:36.559Z,13.93
2022-09-28T05:01:06.032Z,13.60
2022-09-28T05:03:34.040Z,13.73
2022-09-28T05:06:01.619Z,14.53
2022-09-28T05:08:29.299Z,13.30
2022-09-28T05:11:03.110Z,13.20
2022-09-28T05:13:30.856Z,13.80
2022-09-28T05:16:04.446Z,14.27
2022-09-28T05:18:32.604Z,15.67
2022-09-28T05:20:59.852Z,14.17
2022-09-28T05:23:27.115Z,14.33
2022-09-28T05:25:54.317Z,13.73
2022-09-28T05:28:25.280Z,14.07
2022-09-28T05:30:52.506Z,13.73
2022-09-28T05:33:19.651Z,14.10
2022-09-28T05:35:51.056Z,13.60
2022-09-28T05:38:20.530Z,14.97
2022-09-28T05:40:47.858Z,14.50
2022-09-28T05:43:15.166Z,14.87
2022-09-28T05:45:42.499Z,14.97
2022-09-28T05:48:09.670Z,15.13
2022-09-28T05:50:36.823Z,13.67
2022-09-28T05:53:05.759Z,14.93
2022-09-28T05:55:33.609Z,15.33
2022-09-28T05:58:04.172Z,14.90
2022-09-28T06:00:32.342Z,15.17
2022-09-28T06:03:08.084Z,16.17
2022-09-28T06:05:36.872Z,13.77
2022-09-28T06:08:05.326Z,15.20
2022-09-28T06:10:33.298Z,15.30
2022-09-28T06:13:00.642Z,15.53
2022-09-28T06:15:29.122Z,14.20
2022-09-28T06:18:00.387Z,13.33
2022-09-28T06:20:28.318Z,14.40
2022-09-28T06:22:55.886Z,14.27
2022-09-28T06:25:23.553Z,13.77
2022-09-28T06:27:56.849Z,13.77
2022-09-28T06:30:26.856Z,14.33
2022-09-28T06:32:55.157Z,14.13
2022-09-28T06:35:22.582Z,14.00
2022-09-28T06:37:49.800Z,14.50
2022-09-28T06:40:17.017Z,14.23
2022-09-28T06:42:44.725Z,13.07
2022-09-28T06:45:12.108Z,13.47
2022-09-28T06:47:39.268Z,14.30
2022-09-28T06:50:12.144Z,13.90
2022-09-28T06:52:39.504Z,14.93
2022-09-28T06:55:06.868Z,13.17
2022-09-28T06:57:34.079Z,14.30
2022-09-28T07:00:01.456Z,13.13
2022-09-28T07:02:28.651Z,13.97
2022-09-28T07:04:55.847Z,13.53
2022-09-28T07:07:22.994Z,13.17
2022-09-28T07:09:55.364Z,13.57
2022-09-28T07:12:24.568Z,14.40
2022-09-28T07:14:56.315Z,13.97
2022-09-28T07:17:24.134Z,14.03
2022-09-28T07:19:52.697Z,12.50
2022-09-28T07:22:33.698Z,13.53
2022-09-28T07:25:08.007Z,13.20
2022-09-28T07:27:37.318Z,14.10
2022-09-28T07:30:07.589Z,12.23
2022-09-28T07:32:37.513Z,14.03
2022-09-28T07:35:09.386Z,13.10
2022-09-28T07:37:36.924Z,12.97
2022-09-28T07:40:23.951Z,13.30
2022-09-28T07:42:51.178Z,13.57
2022-09-28T07:45:20.708Z,14.60
2022-09-28T07:47:47.981Z,13.07
2022-09-28T07:50:15.185Z,13.70
2022-09-28T07:52:43.194Z,12.93
2022-09-28T07:55:10.657Z,12.97
2022-09-28T07:57:37.835Z,12.30
2022-09-28T08:00:07.367Z,12.27
2022-09-28T08:02:35.329Z,13.10
2022-09-28T08:05:03.187Z,12.23
2022-09-28T08:07:32.530Z,11.63
2022-09-28T08:09:59.669Z,11.70
2022-09-28T08:12:26.879Z,10.97
2022-09-28T08:14:53.992Z,12.37
2022-09-28T08:17:21.162Z,10.53
2022-09-28T08:20:07.101Z,11.17
2022-09-28T08:22:34.311Z,10.93
2022-09-28T08:25:01.612Z,10.40
2022-09-28T08:27:29.019Z,9.70
2022-09-28T08:29:56.323Z,10.27
2022-09-28T08:32:24.869Z,9.17
2022-09-28T08:34:52.230Z,9.10
2022-09-28T08:37:19.673Z,8.23
2022-09-28T08:39:47.032Z,8.57
2022-09-28T08:42:15.676Z,9.47
2022-09-28T08:44:48.297Z,7.97
2022-09-28T08:47:45.025Z,8.87
2022-09-28T08:50:17.262Z,7.93
2022-09-28T08:52:46.476Z,7.40
2022-09-28T08:55:31.436Z,7.63
2022-09-28T08:58:07.678Z,7.03
2022-09-28T09:00:40.424Z,6.43
2022-09-28T09:03:10.280Z,6.93
2022-09-28T09:05:46.767Z,7.20
2022-09-28T09:08:13.884Z,6.93
2022-09-28T09:10:54.274Z,7.27
2022-09-28T09:13:24.430Z,7.30
2022-09-28T09:15:55.747Z,7.63
2022-09-28T09:18:41.546Z,9.70
2022-09-28T09:21:12.583Z,9.17
2022-09-28T09:23:47.711Z,10.33
2022-09-28T09:26:21.289Z,9.50
2022-09-28T09:28:50.132Z,8.47
2022-09-28T09:31:30.246Z,9.03
2022-09-28T09:34:03.437Z,8.70
2022-09-28T09:36:33.372Z,8.90
2022-09-28T09:39:06.425Z,9.57
2022-09-28T09:41:36.781Z,8.03
2022-09-28T09:44:16.740Z,8.47
2022-09-28T09:46:58.524Z,7.93
2022-09-28T09:49:27.179Z,8.03
2022-09-28T09:52:00.301Z,7.70
2022-09-28T09:54:27.423Z,7.67
2022-09-28T09:56:54.892Z,7.63
2022-09-28T09:59:24.283Z,7.50
2022-09-28T10:01:52.411Z,7.73
2022-09-28T10:04:30.521Z,7.73
2022-09-28T10:06:59.574Z,6.80
2022-09-28T10:09:53.172Z,6.80
2022-09-28T10:12:21.508Z,7.17
2022-09-28T10:14:49.570Z,6.77
2022-09-28T10:17:18.419Z,6.10
2022-09-28T10:19:45.584Z,6.10
2022-09-28T10:22:17.339Z,6.67
2022-09-28T10:24:46.411Z,5.93
2022-09-28T10:27:24.683Z,5.70
2022-09-28T10:29:51.829Z,5.17
2022-09-28T10:32:36.735Z,5.60
2022-09-28T10:35:18.810Z,5.40
2022-09-28T10:37:55.123Z,5.97
2022-09-28T10:40:40.807Z,7.20
2022-09-28T10:43:17.252Z,5.73
2022-09-28T10:45:44.492Z,6.00
2022-09-28T10:48:19.995Z,5.27
2022-09-28T10:51:01.445Z,7.77
2022-09-28T10:53:28.674Z,6.30
2022-09-28T10:56:00.359Z,5.47
2022-09-28T10:58:29.294Z,5.53
2022-09-28T11:01:01.804Z,6.47
2022-09-28T11:03:30.005Z,5.53
2022-09-28T11:06:07.714Z,5.10
2022-09-28T11:08:39.073Z,4.40
2022-09-28T11:11:10.642Z,4.20
2022-09-28T11:14:01.301Z,4.30
2022-09-28T11:16:32.782Z,3.10
2022-09-28T11:19:04.438Z,3.33
2022-09-28T11:21:34.465Z,3.73
2022-09-28T11:24:05.982Z,3.00
2022-09-28T11:26:41.031Z,2.77
2022-09-28T11:29:19.683Z,2.90
2022-09-28T11:31:47.209Z,5.47
2022-09-28T11:34:17.214Z,5.40
2022-09-28T11:37:02.957Z,4.60
2022-09-28T11:39:40.249Z,4.40
2022-09-28T11:42:23.546Z,3.33
2022-09-28T11:44:53.303Z,2.87
2022-09-28T11:47:23.506Z,3.23
2022-09-28T11:49:58.950Z,4.17
2022-09-28T11:52:27.559Z,3.60
2022-09-28T11:55:08.073Z,3.50
2022-09-28T11:57:37.466Z,4.53
2022-09-28T12:00:10.589Z,3.20
2022-09-28T12:02:42.422Z,3.87
2022-09-28T12:05:20.546Z,4.03
2022-09-28T12:07:49.551Z,4.20
2022-09-28T12:10:25.748Z,3.40
2022-09-28T12:13:01.064Z,3.17
2022-09-28T12:15:59.287Z,3.50
2022-09-28T12:18:41.230Z,3.87
2022-09-28T12:21:28.570Z,4.20
2022-09-28T12:23:57.625Z,5.10
2022-09-28T12:26:35.891Z,5.30
2022-09-28T12:29:10.976Z,5.07
2022-09-28T12:31:59.168Z,4.57
2022-09-28T12:34:26.373Z,4.83
2022-09-28T12:37:13.000Z,5.90
2022-09-28T12:39:56.647Z,5.67
2022-09-28T12:42:31.594Z,5.30
2022-09-28T12:45:09.835Z,4.83
2022-09-28T12:47:43.000Z,4.20
2022-09-28T12:50:39.951Z,4.10
2022-09-28T12:53:37.208Z,4.80
2022-09-28T12:56:10.173Z,4.47
2022-09-28T12:58:46.158Z,4.23
2022-09-28T13:01:25.774Z,4.10
2022-09-28T13:03:55.740Z,4.60
2022-09-28T13:06:26.409Z,4.30
2022-09-28T13:09:04.536Z,3.27
2022-09-28T13:11:32.051Z,3.77
2022-09-28T13:14:17.652Z,3.20
2022-09-28T13:16:47.591Z,3.43
2022-09-28T13:19:15.639Z,3.20
2022-09-28T13:21:57.847Z,3.63
2022-09-28T13:24:32.863Z,3.10
2022-09-28T13:27:04.594Z,2.90
2022-09-28T13:29:34.918Z,2.60
2022-09-28T13:32:03.434Z,2.00
2022-09-28T13:34:33.348Z,2.70
2022-09-28T13:37:20.001Z,2.30
2022-09-28T13:39:47.131Z,2.63
2022-09-28T13:42:25.784Z,3.07
2022-09-28T13:45:09.541Z,3.13
2022-09-28T13:47:36.675Z,2.90
2022-09-28T13:50:34.385Z,3.23
2022-09-28T13:53:02.353Z,2.97
2022-09-28T13:55:48.149Z,2.07
2022-09-28T13:58:33.212Z,2.30
2022-09-28T14:01:16.226Z,2.33
2022-09-28T14:03:55.418Z,2.67
2022-09-28T14:06:29.930Z,1.90
2022-09-28T14:09:19.015Z,2.40
2022-09-28T14:11:56.455Z,2.47
2022-09-28T14:14:29.777Z,2.30
2022-09-28T14:17:19.636Z,2.20
2022-09-28T14:19:52.830Z,2.07
2022-09-28T14:22:19.955Z,2.10
2022-09-28T14:25:06.450Z,2.63
2022-09-28T14:27:52.049Z,2.00
2022-09-28T14:30:24.157Z,1.90
2022-09-28T14:32:59.013Z,2.20
2022-09-28T14:35:33.598Z,2.10
2022-09-28T14:38:36.927Z,2.20
2022-09-28T14:41:13.644Z,2.03
2022-09-28T14:43:46.735Z,2.20
2022-09-28T14:46:14.614Z,2.00
2022-09-28T14:48:49.333Z,1.90
2022-09-28T14:51:38.028Z,2.20
2022-09-28T14:54:08.919Z,1.90
2022-09-28T14:56:46.519Z,1.50
2022-09-28T14:59:17.817Z,1.10
2022-09-28T15:01:48.039Z,1.13
2022-09-28T15:04:15.568Z,0.90
2022-09-28T15:06:50.111Z,1.40
2022-09-28T15:09:29.440Z,1.60
2022-09-28T15:12:13.101Z,1.80
2022-09-28T15:14:58.977Z,1.77
2022-09-28T15:17:27.983Z,1.80
2022-09-28T15:19:58.310Z,1.80
2022-09-28T15:22:25.461Z,1.83
2022-09-28T15:25:00.027Z,1.70
2022-09-28T15:27:36.575Z,1.63
2022-09-28T15:30:19.621Z,1.70
2022-09-28T15:32:46.799Z,1.90
2022-09-28T15:35:17.143Z,1.63
2022-09-28T15:37:44.902Z,1.60
2022-09-28T15:40:16.788Z,1.63
2022-09-28T15:42:47.276Z,1.60
2022-09-28T15:45:14.355Z,4.67
2022-09-28T15:47:43.735Z,2.57
2022-09-28T15:50:22.869Z,3.00
2022-09-28T15:52:52.803Z,2.93
2022-09-28T15:55:25.876Z,5.13
2022-09-28T15:58:06.135Z,3.90
2022-09-28T16:00:33.378Z,2.67
2022-09-28T16:03:03.908Z,2.90
2022-09-28T16:05:46.662Z,2.50
2022-09-28T16:08:22.095Z,2.20
2022-09-28T16:11:04.113Z,1.77
2022-09-28T16:13:31.351Z,1.83
2022-09-28T16:15:59.924Z,2.00
2022-09-28T16:18:28.107Z,2.47
2022-09-28T16:20:56.277Z,1.93
2022-09-28T16:23:34.288Z,1.90
2022-09-28T16:26:02.837Z,1.97
2022-09-28T16:28:39.160Z,1.37
2022-09-28T16:31:07.976Z,1.70
2022-09-28T16:33:46.898Z,1.60
2022-09-28T16:36:15.596Z,1.40
2022-09-28T16:38:46.296Z,2.10
2022-09-28T16:41:19.434Z,1.70
2022-09-28T16:43:47.075Z,1.70
2022-09-28T16:46:17.407Z,1.47
2022-09-28T16:48:48.624Z,1.77
2022-09-28T16:51:16.187Z,1.23
2022-09-28T16:54:01.969Z,1.40
2022-09-28T16:56:29.430Z,2.97
2022-09-28T16:58:56.610Z,4.07
2022-09-28T17:01:24.241Z,3.10
2022-09-28T17:03:51.507Z,2.80
2022-09-28T17:06:19.241Z,5.43
2022-09-28T17:08:46.437Z,2.57
2022-09-28T17:11:20.521Z,2.73
2022-09-28T17:13:50.717Z,2.13
2022-09-28T17:16:32.602Z,2.00
2022-09-28T17:19:31.023Z,1.97
2022-09-28T17:21:58.256Z,4.00
2022-09-28T17:24:25.372Z,1.80
2022-09-28T17:26:52.999Z,1.97
2022-09-28T17:29:20.373Z,2.30
2022-09-28T17:31:47.736Z,2.03
2022-09-28T17:34:16.320Z,2.03
2022-09-28T17:36:44.101Z,2.20
2022-09-28T17:39:12.869Z,3.73
2022-09-28T17:41:40.745Z,4.20
2022-09-28T17:44:08.014Z,3.97
2022-09-28T17:46:36.614Z,3.80
2022-09-28T17:49:05.068Z,4.73
2022-09-28T17:51:33.598Z,3.27
2022-09-28T17:54:01.231Z,3.27
2022-09-28T17:56:32.105Z,2.90
2022-09-28T17:59:11.454Z,2.20
2022-09-28T18:01:39.752Z,2.30
2022-09-28T18:04:08.809Z,2.40
2022-09-28T18:06:39.349Z,2.77
2022-09-28T18:09:06.507Z,3.13
2022-09-28T18:11:34.094Z,2.73
2022-09-28T18:14:01.580Z,2.83
2022-09-28T18:16:29.267Z,3.37
2022-09-28T18:18:56.438Z,2.80
2022-09-28T18:21:23.582Z,3.47
2022-09-28T18:23:50.927Z,3.70
2022-09-28T18:26:21.469Z,3.40
2022-09-28T18:28:48.822Z,2.50
2022-09-28T18:31:19.134Z,2.70
2022-09-28T18:36:35.643Z,2.10
2022-09-28T18:39:03.039Z,1.90
2022-09-28T18:41:30.178Z,2.40
2022-09-28T18:44:00.808Z,1.87
2022-09-28T18:46:28.944Z,1.40
2022-09-28T18:48:56.542Z,1.90
2022-09-28T18:51:24.351Z,1.70
2022-09-28T18:53:51.559Z,2.00
2022-09-28T18:56:19.417Z,1.90
2022-09-28T18:58:47.440Z,1.27
2022-09-28T19:01:31.772Z,1.37
2022-09-28T19:04:03.238Z,0.90
2022-09-28T19:06:31.748Z,3.00
2022-09-28T19:08:59.427Z,4.50
2022-09-28T19:11:26.880Z,4.53
2022-09-28T19:13:54.667Z,2.43
2022-09-28T19:16:23.988Z,1.30
2022-09-28T19:18:52.397Z,1.37
2022-09-28T19:21:20.204Z,1.30
2022-09-28T19:23:49.885Z,1.20
2022-09-28T19:26:21.401Z,1.37
2022-09-28T19:28:48.911Z,1.90
2022-09-28T19:31:16.841Z,4.67
2022-09-28T19:33:46.411Z,7.07
2022-09-28T19:36:15.589Z,4.13
2022-09-28T19:38:42.738Z,2.80
2022-09-28T19:41:44.825Z,3.20
2022-09-28T19:44:24.882Z,2.73
2022-09-28T19:46:54.759Z,2.10
2022-09-28T19:49:22.668Z,2.20
2022-09-28T19:52:11.663Z,2.07
2022-09-28T19:54:38.151Z,1.97
2022-09-28T19:57:07.696Z,1.63
2022-09-28T19:59:35.693Z,1.80
2022-09-28T20:02:03.510Z,2.00
2022-09-28T20:04:30.804Z,2.00
2022-09-28T20:06:57.907Z,2.70
2022-09-28T20:09:25.109Z,2.80
2022-09-28T20:11:53.057Z,2.87
2022-09-28T20:14:22.398Z,2.60
2022-09-28T20:16:54.347Z,2.57
2022-09-28T20:19:23.292Z,2.87
2022-09-28T20:21:50.562Z,2.90
2022-09-28T20:24:17.865Z,3.50
2022-09-28T20:26:45.977Z,3.57
2022-09-28T20:29:13.302Z,3.30
2022-09-28T20:31:40.800Z,3.20
2022-09-28T20:34:08.253Z,3.50
2022-09-28T20:36:35.517Z,3.93
2022-09-28T20:39:03.098Z,4.57
2022-09-28T20:41:36.716Z,6.40
2022-09-28T20:44:06.017Z,5.00
2022-09-28T20:46:33.939Z,10.83
2022-09-28T20:49:01.391Z,8.40
2022-09-28T20:51:28.523Z,7.50
2022-09-28T20:53:57.292Z,6.93
2022-09-28T20:56:25.944Z,8.83
2022-09-28T20:58:53.595Z,9.07
2022-09-28T21:01:24.697Z,8.73
2022-09-28T21:03:53.139Z,8.07
2022-09-28T21:06:21.893Z,7.40
2022-09-28T21:08:49.583Z,7.03
2022-09-28T21:11:20.994Z,7.40
2022-09-28T21:13:48.125Z,6.87
2022-09-28T21:16:18.004Z,6.37
2022-09-28T21:18:45.509Z,5.70
2022-09-28T21:21:14.393Z,5.47
2022-09-28T21:23:44.796Z,4.70
2022-09-28T21:26:13.610Z,5.37
2022-09-28T21:28:41.044Z,4.93
2022-09-28T21:31:09.442Z,5.30
2022-09-28T21:33:37.204Z,5.17
2022-09-28T21:36:05.904Z,4.57
2022-09-28T21:38:33.457Z,4.87
2022-09-28T21:41:00.983Z,4.73
2022-09-28T21:43:28.872Z,4.57
2022-09-28T21:45:56.873Z,4.63
2022-09-28T21:48:24.659Z,4.90
2022-09-28T21:51:11.901Z,5.30
2022-09-28T21:53:39.122Z,5.40
2022-09-28T21:56:07.400Z,5.03
2022-09-28T21:58:35.803Z,4.77
2022-09-28T22:01:14.749Z,5.40
2022-09-28T22:03:43.159Z,5.93
2022-09-28T22:06:10.319Z,6.27
2022-09-28T22:08:38.007Z,6.33
2022-09-28T22:11:06.834Z,6.43
2022-09-28T22:13:35.445Z,6.27
2022-09-28T22:16:02.935Z,6.60
2022-09-28T22:18:31.250Z,7.00
2022-09-28T22:21:02.016Z,5.70
2022-09-28T22:23:29.675Z,6.33
2022-09-28T22:26:04.503Z,6.57
2022-09-28T22:28:31.696Z,6.90
2022-09-28T22:30:58.979Z,6.53
2022-09-28T22:33:26.489Z,6.43
2022-09-28T22:35:53.758Z,6.53
2022-09-28T22:38:21.407Z,6.73
2022-09-28T22:40:52.387Z,7.53
2022-09-28T22:43:19.662Z,7.80
2022-09-28T22:45:47.084Z,7.87
2022-09-28T22:48:14.581Z,8.00
2022-09-28T22:50:51.485Z,8.00
2022-09-28T22:53:19.000Z,8.37
2022-09-28T22:55:46.144Z,7.97
2022-09-28T22:58:13.811Z,9.23
2022-09-28T23:00:40.940Z,9.13
2022-09-28T23:03:08.140Z,9.40
2022-09-28T23:05:35.340Z,10.23
2022-09-28T23:08:03.219Z,9.67
2022-09-28T23:10:30.593Z,10.13
2022-09-28T23:12:58.349Z,10.23
2022-09-28T23:15:26.147Z,11.30
2022-09-28T23:17:53.555Z,10.67
2022-09-28T23:20:21.430Z,10.63
2022-09-28T23:22:48.819Z,10.90
2022-09-28T23:25:16.790Z,11.27
2022-09-28T23:27:50.714Z,11.10
2022-09-28T23:30:19.916Z,10.10
2022-09-28T23:32:47.151Z,11.07
2022-09-28T23:35:14.749Z,11.33
2022-09-28T23:37:41.900Z,11.73
2022-09-28T23:40:09.175Z,11.03
2022-09-28T23:42:36.331Z,11.37
2022-09-28T23:45:03.582Z,12.13
2022-09-28T23:47:30.710Z,11.57
2022-09-28T23:49:57.812Z,11.33
2022-09-28T23:52:25.221Z,11.20
2022-09-28T23:54:52.323Z,11.53
2022-09-28T23:57:19.510Z,11.90
2022-09-28T23:59:46.640Z,12.30
